EDMAEDNY

Guest
Details From EDMA - Augsburg
To EDNY - Friedrichshafen
Flight Number -
Tags generated
Created
Modified
Stats Distance 73 nm / 135 km
Max Altitude 1,500 ft / 457 m
Waypoints 3
Social Downloads 0
Likes 0
Share VATSIM

Download

Looking for another format? Having issues loading an existing format? Contact us
Advertisement - Login to hide

Notes

Basic altitude profile: - Ascent Rate: 2500ft/min - Ascent Speed: 250kts - Cruise Altitude: 35000ft - Cruise Speed: 420kts - Descent Rate: 1500ft/min - Descent Speed: 250kts Options: - Use NATs: yes - Use PACOTS: yes - Use low airways: yes - Use high airways: yes

Route

EDMA RAVED EDNY

ID Type Via Altitude Latitude Longitude Leg Dist Tot Dist Heading (true) Name
O EDMA APT - 0 ft / 0 m 48.42424˚ 10.93428˚ - 0 nm - Augsburg
RAVED FIX - 1,500 ft / 457 m 47.72917˚ 9.66944˚ 65 nm 65 nm 231° / 230° -
O EDNY APT - 0 ft / 0 m 47.67089˚ 9.50818˚ 7 nm 73 nm 242° / 242° Friedrichshafen

Altitude Profile

Advertisement - Login to hide

EDMA

Details ICAO EDMA (AGB)
Name Augsburg
Region Germany - Civil
Timezone Europe/Berlin (UTC+2.0)
Stats Elevation 1,515 ft / 462 m (AMSL)
Location 48.424245° 10.934277°
Runways 2
Magnetic Variation 3.008° E

METAR

EDMA 251920Z AUTO 08004KT 9999 // SCT120/// 18/15 Q1019

Decode

TAF

Not found

Departure Runways

ID Width Length Bearing (true) Bearing (mag) Surface Threshold Offset Overrun Length
07 98 ft / 30 m 4,186 ft / 1,276 m 71.38° 68.37° Asphalt 0 ft / 0 m 164 ft / 50 m
07L 100 ft / 30 m 3,320 ft / 1,012 m 71.47° 68.46° Grass 0 ft / 0 m 0 ft / 0 m
25 98 ft / 30 m 4,186 ft / 1,276 m 251.39° 248.38° Asphalt 0 ft / 0 m 164 ft / 50 m
25R 100 ft / 30 m 3,320 ft / 1,012 m 251.48° 248.47° Grass 0 ft / 0 m 0 ft / 0 m

EDNY

Details ICAO EDNY (FDH)
Name Friedrichshafen
Region Germany - Civil
Timezone Europe/Berlin (UTC+2.0)
Stats Elevation 1,367 ft / 417 m (AMSL)
Location 47.670891° 9.508175°
Runways 2
Magnetic Variation 2.640° E

METAR

EDNY 251920Z VRB02KT CAVOK 20/09 Q1017

Decode

TAF

TAF EDNY 251700Z 2518/2618 04003KT CAVOK BECMG 2609/2611 22005KT BECMG 2616/2618 04003KT

Decode

Destination Runways

ID Width Length Bearing (true) Bearing (mag) Surface Threshold Offset Overrun Length
06 148 ft / 45 m 7,738 ft / 2,359 m 60.02° 57.38° Asphalt 869 ft / 265 m 0 ft / 0 m
06L 92 ft / 28 m 3,167 ft / 965 m 60.04° 57.40° Grass 0 ft / 0 m 0 ft / 0 m
24 148 ft / 45 m 7,738 ft / 2,359 m 240.04° 237.40° Asphalt 676 ft / 206 m 89 ft / 27 m
24R 92 ft / 28 m 3,167 ft / 965 m 240.04° 237.40° Grass 0 ft / 0 m 0 ft / 0 m

Approach Navaids

Runway Type Ident Frequency Range Bearing (true) Bearing (mag) Slope Elevation
06 Localiser IFHE 111.90 MHz 18 nm / 33 km 60.06° 57.42° - 1,366 ft / 416 m (AMSL)
06 Glidescope IFHE 111.90 MHz 10 nm / 19 km 60.03° 57.39° 3.10° 1,367 ft / 417 m (AMSL)
24 Localiser IFHW 111.90 MHz 18 nm / 33 km 240.03° 237.39° - 1,333 ft / 406 m (AMSL)
24 Glidescope IFHW 111.90 MHz 10 nm / 19 km 240.03° 237.39° 3.00° 1,367 ft / 417 m (AMSL)

Popular Alternatives